Time;durP1;ratioP1;P1;durP2;ratioP2;P2;SDS_P1;SDS_P2;PMS_P1;PMS_P2;Temp;Humidity;BMP_temperature;BMP_pressure;BME280_temperature;BME280_humidity;BME280_pressure;Samples;Min_cycle;Max_cycle;Signal;HPM_P1;HPM_P2
2021/04/12 00:01:03;;;;;;;;;;;4.80;89.70;;;;;;5017981;28;19909;-86
2021/04/12 00:03:32;;;;;;;;;;;4.80;89.70;;;;;;5018585;28;19905;-85
2021/04/12 00:06:10;;;;;;;;;;;4.80;89.90;;;;;;5018521;28;19909;-85
2021/04/12 00:08:39;;;;;;;;;;;4.80;89.70;;;;;;5018881;28;19905;-85
2021/04/12 00:11:11;;;;;;;;;;;4.70;89.90;;;;;;5018618;28;20312;-85
2021/04/12 00:13:40;;;;;;;;;;;4.70;90.10;;;;;;5018820;28;19935;-85
2021/04/12 00:16:14;;;;;;;;;;;4.70;90.20;;;;;;5018240;28;19952;-85
2021/04/12 00:18:56;;;;;;;;;;;4.60;90.50;;;;;;5018577;28;20065;-85
2021/04/12 00:21:26;;;;;;;;;;;4.60;90.60;;;;;;5018485;28;19912;-85
2021/04/12 00:24:18;;;;;;;;;;;4.60;91.00;;;;;;5018844;28;19912;-84
2021/04/12 00:26:43;;;;;;;;;;;4.60;91.10;;;;;;5014691;28;19919;-85
2021/04/12 00:29:12;;;;;;;;;;;4.50;91.40;;;;;;5019189;28;19909;-85
2021/04/12 00:31:40;;;;;;;;;;;4.40;91.60;;;;;;5019047;28;19905;-85
2021/04/12 00:34:12;;;;;;;;;;;4.40;91.70;;;;;;5018851;28;19921;-86
2021/04/12 00:36:57;;;;;;;;;;;4.40;91.80;;;;;;5018365;28;19909;-85
2021/04/12 00:39:28;;;;;;;;;;;4.20;91.90;;;;;;5018802;28;19905;-88
2021/04/12 00:42:09;;;;;;;;;;;4.10;92.30;;;;;;5018630;28;19905;-85
2021/04/12 00:44:53;;;;;;;;;;;3.90;92.50;;;;;;5018545;28;20274;-85
2021/04/12 00:47:37;;;;;;;;;;;3.90;92.70;;;;;;5018543;28;19905;-85
2021/04/12 00:50:22;;;;;;;;;;;3.70;92.80;;;;;;5018242;28;19905;-85
2021/04/12 00:52:47;;;;;;;;;;;3.70;93.00;;;;;;5018563;28;19967;-85
2021/04/12 00:55:22;;;;;;;;;;;3.50;93.30;;;;;;5018241;28;19909;-86
2021/04/12 00:58:01;;;;;;;;;;;3.50;93.40;;;;;;5018162;28;19928;-85
2021/04/12 01:00:33;;;;;;;;;;;3.50;93.60;;;;;;5018387;28;19912;-85
2021/04/12 01:03:13;;;;;;;;;;;3.60;93.50;;;;;;5018553;28;19952;-85
2021/04/12 01:05:55;;;;;;;;;;;3.60;93.50;;;;;;5017879;28;19936;-86
2021/04/12 01:08:24;;;;;;;;;;;3.60;93.30;;;;;;5017952;28;19905;-85
2021/04/12 01:11:02;;;;;;;;;;;3.50;93.30;;;;;;5017644;28;19915;-85
2021/04/12 01:13:33;;;;;;;;;;;3.50;93.50;;;;;;5018096;28;19913;-85
2021/04/12 01:16:10;;;;;;;;;;;3.50;93.80;;;;;;5017891;28;19909;-85
2021/04/12 01:18:42;;;;;;;;;;;3.50;93.60;;;;;;5017932;28;19909;-85
2021/04/12 01:21:46;;;;;;;;;;;3.50;93.40;;;;;;5017610;28;19944;-86
2021/04/12 01:24:22;;;;;;;;;;;3.40;93.50;;;;;;4939017;29;19907;-85
2021/04/12 01:27:03;;;;;;;;;;;3.40;93.60;;;;;;4939215;29;19910;-85
2021/04/12 01:29:47;;;;;;;;;;;3.40;93.60;;;;;;4989394;28;19905;-85
2021/04/12 01:32:33;;;;;;;;;;;3.40;93.90;;;;;;5017657;28;20354;-85
2021/04/12 01:35:17;;;;;;;;;;;3.40;93.60;;;;;;5016087;28;19909;-85
2021/04/12 01:38:01;;;;;;;;;;;3.40;93.50;;;;;;5017055;28;20361;-85
2021/04/12 01:41:02;;;;;;;;;;;3.30;93.60;;;;;;5017383;28;19905;-84
2021/04/12 01:43:35;;;;;;;;;;;3.20;93.90;;;;;;4938705;29;19942;-85
2021/04/12 01:46:19;;;;;;;;;;;3.20;93.80;;;;;;5004737;28;19972;-86
2021/04/12 01:49:06;;;;;;;;;;;3.10;94.20;;;;;;5016052;28;19912;-86
2021/04/12 01:51:35;;;;;;;;;;;3.20;94.10;;;;;;5033810;28;19905;-86
2021/04/12 01:54:19;;;;;;;;;;;3.20;94.00;;;;;;5033571;28;19905;-86
2021/04/12 01:57:03;;;;;;;;;;;3.20;93.90;;;;;;5016287;28;19909;-86
2021/04/12 01:59:48;;;;;;;;;;;3.20;94.00;;;;;;5014969;28;19955;-86
2021/04/12 02:02:28;;;;;;;;;;;3.10;94.00;;;;;;5015930;28;20336;-85
2021/04/12 02:05:03;;;;;;;;;;;3.10;94.00;;;;;;5015833;28;19940;-86
2021/04/12 02:07:53;;;;;;;;;;;3.10;94.10;;;;;;5016425;28;20324;-85
2021/04/12 02:10:37;;;;;;;;;;;3.10;94.10;;;;;;5015607;28;19912;-86
2021/04/12 02:13:23;;;;;;;;;;;3.10;94.00;;;;;;5033341;28;19943;-86
2021/04/12 02:16:23;;;;;;;;;;;3.00;94.00;;;;;;5033325;28;19936;-86
2021/04/12 02:19:22;;;;;;;;;;;2.90;94.20;;;;;;5033029;28;19905;-86
2021/04/12 02:21:51;;;;;;;;;;;3.00;94.20;;;;;;5015733;28;19912;-86
2021/04/12 02:24:35;;;;;;;;;;;2.90;94.20;;;;;;5015328;28;19905;-85
2021/04/12 02:27:24;;;;;;;;;;;2.90;94.30;;;;;;5033261;28;19917;-86
2021/04/12 02:29:54;;;;;;;;;;;2.90;94.30;;;;;;5013852;28;20006;-86
2021/04/12 02:32:20;;;;;;;;;;;3.00;94.20;;;;;;5032120;28;19908;-86
2021/04/12 02:34:48;;;;;;;;;;;2.90;94.20;;;;;;5015115;28;20312;-86
2021/04/12 02:37:26;;;;;;;;;;;3.00;94.20;;;;;;5015356;28;19955;-85
2021/04/12 02:40:05;;;;;;;;;;;2.90;94.30;;;;;;5032396;28;19905;-85
2021/04/12 02:42:37;;;;;;;;;;;2.90;94.40;;;;;;5014974;28;19905;-85
2021/04/12 02:45:30;;;;;;;;;;;2.90;94.40;;;;;;5015143;28;19955;-86
2021/04/12 02:48:06;;;;;;;;;;;2.90;94.40;;;;;;5028864;28;19905;-86
2021/04/12 02:50:40;;;;;;;;;;;2.90;94.40;;;;;;5032462;28;20266;-86
2021/04/12 02:53:20;;;;;;;;;;;2.90;94.40;;;;;;5015000;28;19959;-86
2021/04/12 02:56:04;;;;;;;;;;;2.80;94.50;;;;;;5032643;28;19912;-86
2021/04/12 02:58:33;;;;;;;;;;;2.80;94.60;;;;;;5015317;28;20417;-85
2021/04/12 03:01:08;;;;;;;;;;;2.80;94.50;;;;;;5014736;28;20002;-86
2021/04/12 03:03:52;;;;;;;;;;;2.80;94.50;;;;;;5032784;28;19911;-86
2021/04/12 03:06:38;;;;;;;;;;;2.80;94.30;;;;;;5015069;28;19905;-86
2021/04/12 03:09:22;;;;;;;;;;;2.80;94.20;;;;;;5014724;28;19959;-86
2021/04/12 03:11:47;;;;;;;;;;;2.70;94.30;;;;;;5033969;28;19916;-85
2021/04/12 03:14:42;;;;;;;;;;;2.70;94.70;;;;;;5036849;28;19905;-86
2021/04/12 03:17:19;;;;;;;;;;;2.60;94.70;;;;;;5019269;28;20011;-86
2021/04/12 03:20:04;;;;;;;;;;;2.70;94.70;;;;;;5018675;28;19949;-86
2021/04/12 03:22:40;;;;;;;;;;;2.60;94.70;;;;;;5018781;28;20461;-85
2021/04/12 03:25:35;;;;;;;;;;;2.60;94.70;;;;;;5018685;28;19963;-85
2021/04/12 03:28:20;;;;;;;;;;;2.60;94.50;;;;;;5018779;28;19912;-86
2021/04/12 03:31:04;;;;;;;;;;;2.60;94.90;;;;;;5019098;28;20360;-86
2021/04/12 03:33:42;;;;;;;;;;;2.60;94.80;;;;;;5019026;28;20361;-86
2021/04/12 03:36:26;;;;;;;;;;;2.50;94.80;;;;;;5018690;28;19909;-86
2021/04/12 03:39:10;;;;;;;;;;;2.50;94.60;;;;;;5036849;28;19904;-85
2021/04/12 03:41:39;;;;;;;;;;;2.50;94.50;;;;;;5018416;28;19944;-85
2021/04/12 03:44:07;;;;;;;;;;;2.30;94.90;;;;;;5036082;28;19905;-85
2021/04/12 03:46:46;;;;;;;;;;;2.40;95.00;;;;;;5018810;28;20472;-85
2021/04/12 03:49:18;;;;;;;;;;;2.40;94.90;;;;;;5018057;28;19906;-86
2021/04/12 03:51:54;;;;;;;;;;;2.40;95.00;;;;;;5018527;28;19905;-85
2021/04/12 03:54:22;;;;;;;;;;;2.40;94.80;;;;;;5018135;28;19905;-86
2021/04/12 03:56:51;;;;;;;;;;;2.40;95.00;;;;;;5018096;28;20003;-86
2021/04/12 03:59:19;;;;;;;;;;;2.50;94.80;;;;;;5017932;28;19939;-86
2021/04/12 04:01:44;;;;;;;;;;;2.50;95.10;;;;;;5035898;28;20025;-86
2021/04/12 04:04:10;;;;;;;;;;;2.40;95.10;;;;;;5018270;28;19905;-86
2021/04/12 04:06:53;;;;;;;;;;;2.40;95.00;;;;;;5017952;28;19905;-86
2021/04/12 04:09:21;;;;;;;;;;;2.30;94.90;;;;;;5017685;28;19905;-85
2021/04/12 04:12:12;;;;;;;;;;;2.30;95.10;;;;;;5018150;28;19916;-86
2021/04/12 04:14:46;;;;;;;;;;;2.30;95.00;;;;;;5036054;28;19905;-86
2021/04/12 04:17:32;;;;;;;;;;;2.40;95.20;;;;;;5018341;28;19909;-86
2021/04/12 04:20:16;;;;;;;;;;;2.50;94.80;;;;;;5035471;28;19959;-86
2021/04/12 04:22:59;;;;;;;;;;;2.50;94.90;;;;;;5035162;28;19913;-86
2021/04/12 04:25:36;;;;;;;;;;;2.30;94.90;;;;;;5036369;28;20432;-86
2021/04/12 04:28:05;;;;;;;;;;;2.30;94.90;;;;;;5018048;28;20350;-86
2021/04/12 04:30:38;;;;;;;;;;;2.20;95.10;;;;;;5035392;28;19912;-86
2021/04/12 04:33:12;;;;;;;;;;;2.20;95.00;;;;;;5019284;28;20339;-86
2021/04/12 04:36:01;;;;;;;;;;;2.20;95.10;;;;;;5018475;28;19967;-86
2021/04/12 04:38:35;;;;;;;;;;;2.10;95.10;;;;;;5035421;28;20313;-86
2021/04/12 04:41:12;;;;;;;;;;;2.10;95.10;;;;;;5017151;28;19905;-86
2021/04/12 04:43:58;;;;;;;;;;;2.10;95.10;;;;;;5018764;28;19905;-86
2021/04/12 04:46:33;;;;;;;;;;;2.10;95.20;;;;;;5036270;28;20320;-86
2021/04/12 04:48:58;;;;;;;;;;;2.10;95.20;;;;;;5018147;28;19909;-87
2021/04/12 04:51:27;;;;;;;;;;;2.10;95.40;;;;;;5020135;28;20325;-86
2021/04/12 04:54:02;;;;;;;;;;;2.10;95.40;;;;;;5021983;28;19931;-86
2021/04/12 04:56:35;;;;;;;;;;;2.10;95.40;;;;;;5021599;28;19909;-85
2021/04/12 04:59:16;;;;;;;;;;;2.20;95.40;;;;;;5038536;28;20350;-86
2021/04/12 05:01:50;;;;;;;;;;;2.20;95.30;;;;;;5039134;28;19905;-86
2021/04/12 05:04:15;;;;;;;;;;;2.20;95.30;;;;;;5021600;28;19909;-86
2021/04/12 05:06:44;;;;;;;;;;;2.10;95.50;;;;;;5021684;28;19912;-86
2021/04/12 05:09:17;;;;;;;;;;;2.10;95.50;;;;;;5039233;28;19908;-86
2021/04/12 05:11:52;;;;;;;;;;;2.20;95.40;;;;;;5040327;28;20337;-86
2021/04/12 05:14:36;;;;;;;;;;;2.20;95.30;;;;;;5028466;28;19894;-86
2021/04/12 05:17:14;;;;;;;;;;;2.20;95.50;;;;;;5057949;28;19897;-86
2021/04/12 05:19:58;;;;;;;;;;;2.20;95.70;;;;;;5039635;28;19935;-86
2021/04/12 05:22:27;;;;;;;;;;;2.40;95.90;;;;;;5019411;28;19944;-86
2021/04/12 05:24:52;;;;;;;;;;;2.50;95.50;;;;;;5035003;28;20270;-86
2021/04/12 05:27:37;;;;;;;;;;;2.60;95.80;;;;;;5017177;28;19905;-86
2021/04/12 05:30:02;;;;;;;;;;;2.80;95.60;;;;;;5034126;28;19905;-86
2021/04/12 05:32:34;;;;;;;;;;;2.90;95.50;;;;;;5016869;28;19905;-86
2021/04/12 05:35:11;;;;;;;;;;;3.00;95.00;;;;;;5033115;28;20005;-86
2021/04/12 05:37:40;;;;;;;;;;;3.10;95.10;;;;;;5016286;28;19912;-85
2021/04/12 05:40:24;;;;;;;;;;;3.10;94.90;;;;;;5033742;28;20378;-86
2021/04/12 05:42:55;;;;;;;;;;;3.20;95.00;;;;;;5034022;28;19952;-85
2021/04/12 05:45:39;;;;;;;;;;;3.20;94.80;;;;;;5034045;28;20392;-86
2021/04/12 05:48:19;;;;;;;;;;;3.30;94.60;;;;;;5016983;28;19905;-86
2021/04/12 05:50:45;;;;;;;;;;;3.40;94.50;;;;;;5033761;28;19996;-86
2021/04/12 05:53:29;;;;;;;;;;;3.40;94.00;;;;;;5034024;28;19932;-86
2021/04/12 05:56:13;;;;;;;;;;;3.60;94.20;;;;;;5015900;28;19996;-85
2021/04/12 05:59:10;;;;;;;;;;;3.50;94.30;;;;;;5016128;28;19971;-86
2021/04/12 06:01:50;;;;;;;;;;;3.50;94.40;;;;;;5015888;28;20359;-86
2021/04/12 06:04:34;;;;;;;;;;;3.50;94.50;;;;;;5016072;28;19912;-86
2021/04/12 06:07:12;;;;;;;;;;;3.50;94.70;;;;;;5015630;28;19915;-85
2021/04/12 06:09:40;;;;;;;;;;;3.50;94.50;;;;;;5033227;28;19931;-86
2021/04/12 06:12:15;;;;;;;;;;;3.50;94.50;;;;;;5034103;28;19994;-86
2021/04/12 06:14:59;;;;;;;;;;;3.60;94.20;;;;;;5034204;28;19905;-86
2021/04/12 06:17:40;;;;;;;;;;;3.60;94.30;;;;;;5034272;28;20420;-86
2021/04/12 06:20:18;;;;;;;;;;;3.60;94.30;;;;;;5015941;28;20273;-86
2021/04/12 06:22:43;;;;;;;;;;;3.70;93.90;;;;;;5034382;28;20281;-86
2021/04/12 06:25:27;;;;;;;;;;;3.80;94.00;;;;;;5033800;28;19909;-85
2021/04/12 06:28:11;;;;;;;;;;;3.70;93.90;;;;;;5034591;28;20377;-86
2021/04/12 06:30:37;;;;;;;;;;;3.80;94.40;;;;;;5033449;28;19995;-87
2021/04/12 06:33:05;;;;;;;;;;;3.80;93.90;;;;;;5033836;28;19944;-86
2021/04/12 06:35:40;;;;;;;;;;;3.90;93.80;;;;;;5033698;28;20385;-86
2021/04/12 06:38:24;;;;;;;;;;;3.90;94.20;;;;;;5016101;28;19912;-85
2021/04/12 06:41:08;;;;;;;;;;;4.00;93.80;;;;;;5015366;28;19913;-85
2021/04/12 06:43:43;;;;;;;;;;;4.00;93.60;;;;;;5033786;28;20404;-86
2021/04/12 06:46:08;;;;;;;;;;;4.00;93.70;;;;;;5015528;28;20280;-86
2021/04/12 06:48:43;;;;;;;;;;;3.90;93.80;;;;;;5015369;28;19905;-86
2021/04/12 06:51:27;;;;;;;;;;;4.00;94.00;;;;;;5015083;28;19955;-86
2021/04/12 06:54:11;;;;;;;;;;;4.00;93.50;;;;;;5015797;28;19932;-86
2021/04/12 06:57:15;;;;;;;;;;;4.00;93.70;;;;;;5033561;28;19959;-85
2021/04/12 06:59:44;;;;;;;;;;;4.10;93.60;;;;;;4936189;29;20129;-86
2021/04/12 07:02:28;;;;;;;;;;;4.20;93.70;;;;;;4952761;28;19915;-85
2021/04/12 07:05:06;;;;;;;;;;;4.20;93.40;;;;;;4985022;28;19909;-85
2021/04/12 07:07:56;;;;;;;;;;;4.30;93.60;;;;;;5015578;28;19909;-86
2021/04/12 07:10:40;;;;;;;;;;;4.30;93.60;;;;;;5032732;28;19909;-85
2021/04/12 07:13:24;;;;;;;;;;;4.30;93.40;;;;;;5033433;28;19924;-86
2021/04/12 07:16:08;;;;;;;;;;;4.30;93.80;;;;;;5033180;28;19923;-86
2021/04/12 07:18:52;;;;;;;;;;;4.30;93.70;;;;;;5033257;28;19940;-86
2021/04/12 07:21:21;;;;;;;;;;;4.20;93.70;;;;;;5015554;28;19952;-86
2021/04/12 07:23:49;;;;;;;;;;;4.30;93.60;;;;;;5015063;28;20263;-86
2021/04/12 07:26:33;;;;;;;;;;;4.20;93.90;;;;;;5032864;28;19916;-86
2021/04/12 07:29:08;;;;;;;;;;;4.30;94.10;;;;;;5015189;28;19988;-85
2021/04/12 07:31:52;;;;;;;;;;;4.30;93.80;;;;;;5015188;28;20289;-86
2021/04/12 07:34:18;;;;;;;;;;;4.20;94.20;;;;;;5033205;28;19931;-86
2021/04/12 07:36:44;;;;;;;;;;;4.30;94.40;;;;;;5015781;28;19913;-86
2021/04/12 07:39:28;;;;;;;;;;;4.40;93.90;;;;;;5032795;28;19963;-86
2021/04/12 07:41:56;;;;;;;;;;;4.40;94.20;;;;;;5033039;28;19976;-86
2021/04/12 07:44:22;;;;;;;;;;;4.50;94.30;;;;;;5015442;28;20343;-86
2021/04/12 07:47:06;;;;;;;;;;;4.40;94.50;;;;;;5033941;28;19917;-86
2021/04/12 07:49:37;;;;;;;;;;;4.50;94.50;;;;;;5032997;28;19913;-86
2021/04/12 07:52:26;;;;;;;;;;;4.50;94.00;;;;;;5015678;28;20255;-85
2021/04/12 07:54:52;;;;;;;;;;;4.50;93.60;;;;;;5015716;28;19917;-86
2021/04/12 07:57:35;;;;;;;;;;;4.50;94.40;;;;;;5016206;28;20473;-86
2021/04/12 08:00:19;;;;;;;;;;;4.70;94.20;;;;;;5018312;28;19909;-87
2021/04/12 08:02:47;;;;;;;;;;;4.70;94.20;;;;;;5019252;28;19913;-86
2021/04/12 08:05:16;;;;;;;;;;;4.80;93.80;;;;;;5018943;28;19928;-86
2021/04/12 08:07:54;;;;;;;;;;;4.90;93.80;;;;;;5036820;28;20481;-86
2021/04/12 08:10:34;;;;;;;;;;;4.90;93.70;;;;;;5018742;28;20324;-85
2021/04/12 08:13:08;;;;;;;;;;;4.90;93.70;;;;;;5036934;28;19980;-85
2021/04/12 08:16:07;;;;;;;;;;;5.00;93.30;;;;;;5018820;28;19913;-86
2021/04/12 08:18:33;;;;;;;;;;;5.10;92.90;;;;;;5018888;28;19916;-87
2021/04/12 08:21:17;;;;;;;;;;;5.10;92.40;;;;;;5036077;28;19909;-86
2021/04/12 08:23:42;;;;;;;;;;;5.20;92.60;;;;;;5018787;28;19910;-86
2021/04/12 08:26:26;;;;;;;;;;;5.10;91.70;;;;;;5018720;28;19962;-86
2021/04/12 08:29:11;;;;;;;;;;;5.10;92.30;;;;;;5018695;28;19916;-86
2021/04/12 08:31:45;;;;;;;;;;;5.20;92.00;;;;;;5019148;28;20278;-86
2021/04/12 08:34:20;;;;;;;;;;;5.20;91.90;;;;;;5018810;28;19941;-87
2021/04/12 08:36:55;;;;;;;;;;;5.20;91.80;;;;;;5018802;28;20155;-86
2021/04/12 08:39:20;;;;;;;;;;;5.10;92.00;;;;;;5018522;28;19909;-86
2021/04/12 08:41:49;;;;;;;;;;;5.20;92.20;;;;;;5018364;28;19916;-86
2021/04/12 08:44:33;;;;;;;;;;;5.20;92.00;;;;;;5019026;28;19909;-86
2021/04/12 08:47:13;;;;;;;;;;;5.20;92.00;;;;;;5036738;28;19920;-86
2021/04/12 08:49:41;;;;;;;;;;;5.20;92.20;;;;;;5017796;28;19913;-87
2021/04/12 08:52:25;;;;;;;;;;;5.20;92.00;;;;;;5036028;28;19979;-86
2021/04/12 08:55:07;;;;;;;;;;;5.20;92.10;;;;;;5036070;28;19964;-86
2021/04/12 08:57:51;;;;;;;;;;;5.30;92.40;;;;;;5018688;28;19909;-86
2021/04/12 09:00:26;;;;;;;;;;;5.40;92.20;;;;;;5035864;28;19909;-87
2021/04/12 09:02:57;;;;;;;;;;;5.40;92.30;;;;;;5035672;28;19916;-87
2021/04/12 09:05:31;;;;;;;;;;;5.40;91.90;;;;;;5018277;28;19916;-86
2021/04/12 09:08:00;;;;;;;;;;;5.40;92.10;;;;;;5017528;28;20362;-86
2021/04/12 09:10:35;;;;;;;;;;;5.40;91.90;;;;;;5017205;28;19910;-87
2021/04/12 09:13:20;;;;;;;;;;;5.50;92.20;;;;;;5017907;28;19967;-86
2021/04/12 09:16:04;;;;;;;;;;;5.30;92.30;;;;;;5035417;28;19914;-86
2021/04/12 09:18:48;;;;;;;;;;;5.40;92.10;;;;;;5017453;28;19960;-86
2021/04/12 09:21:32;;;;;;;;;;;5.40;91.80;;;;;;5017235;28;19909;-86
2021/04/12 09:24:21;;;;;;;;;;;5.50;92.00;;;;;;5017601;28;20385;-87
2021/04/12 09:26:55;;;;;;;;;;;5.50;91.90;;;;;;5035316;28;19916;-86
2021/04/12 09:29:39;;;;;;;;;;;5.60;91.30;;;;;;5017226;28;20242;-86
2021/04/12 09:32:23;;;;;;;;;;;5.60;91.30;;;;;;5017246;28;19910;-87
2021/04/12 09:34:49;;;;;;;;;;;5.60;90.90;;;;;;5017681;28;19990;-86
2021/04/12 09:37:23;;;;;;;;;;;5.60;90.20;;;;;;5017386;28;20386;-86
2021/04/12 09:39:49;;;;;;;;;;;5.70;90.70;;;;;;5016734;28;19979;-86
2021/04/12 09:42:23;;;;;;;;;;;5.70;86.70;;;;;;5017219;28;19909;-87
2021/04/12 09:45:08;;;;;;;;;;;5.70;88.50;;;;;;5016981;28;20296;-87
2021/04/12 09:47:36;;;;;;;;;;;5.70;87.70;;;;;;5017151;28;19909;-85
2021/04/12 09:50:12;;;;;;;;;;;5.70;86.70;;;;;;5034125;28;20427;-86
2021/04/12 09:52:45;;;;;;;;;;;5.70;86.70;;;;;;5017206;28;20393;-85
2021/04/12 09:55:10;;;;;;;;;;;5.70;85.70;;;;;;5017367;28;19909;-87
2021/04/12 09:57:48;;;;;;;;;;;5.80;83.50;;;;;;5035033;28;20389;-85
2021/04/12 10:00:32;;;;;;;;;;;6.00;82.50;;;;;;5016742;28;20282;-86
2021/04/12 10:03:16;;;;;;;;;;;6.00;76.60;;;;;;5016837;28;19913;-87
2021/04/12 10:05:42;;;;;;;;;;;6.10;76.50;;;;;;5016592;28;19910;-85
2021/04/12 10:08:16;;;;;;;;;;;6.20;78.30;;;;;;5034278;28;20008;-87
2021/04/12 10:10:53;;;;;;;;;;;6.20;76.60;;;;;;5033642;28;19909;-87
2021/04/12 10:13:33;;;;;;;;;;;6.20;76.00;;;;;;5016273;28;19936;-86
2021/04/12 10:16:03;;;;;;;;;;;6.30;75.80;;;;;;5034631;28;20005;-86
2021/04/12 10:18:32;;;;;;;;;;;6.30;73.40;;;;;;5016917;28;19910;-86
2021/04/12 10:21:13;;;;;;;;;;;6.40;71.00;;;;;;5016008;28;20409;-86
2021/04/12 10:23:40;;;;;;;;;;;6.50;72.10;;;;;;5034342;28;19909;-86
2021/04/12 10:26:07;;;;;;;;;;;6.50;69.00;;;;;;5016210;28;19916;-86
2021/04/12 10:28:36;;;;;;;;;;;6.50;69.20;;;;;;5016435;28;19909;-86
2021/04/12 10:31:25;;;;;;;;;;;6.70;68.10;;;;;;5033278;28;19909;-86
2021/04/12 10:34:03;;;;;;;;;;;6.60;66.50;;;;;;5017767;28;19924;-86
2021/04/12 10:36:31;;;;;;;;;;;6.30;80.60;;;;;;5017754;28;20004;-87
2021/04/12 10:39:03;;;;;;;;;;;5.60;87.50;;;;;;5035386;28;20350;-86
2021/04/12 10:41:32;;;;;;;;;;;5.40;90.30;;;;;;5034942;28;19975;-86
2021/04/12 10:44:16;;;;;;;;;;;4.80;91.80;;;;;;5016899;28;20344;-86
2021/04/12 10:46:42;;;;;;;;;;;4.50;92.80;;;;;;5016959;28;19910;-86
2021/04/12 10:49:15;;;;;;;;;;;4.50;93.70;;;;;;5033940;28;19967;-85
2021/04/12 10:51:41;;;;;;;;;;;4.10;94.80;;;;;;5016844;28;19909;-86
2021/04/12 10:54:26;;;;;;;;;;;4.00;96.20;;;;;;5017450;28;19909;-86
2021/04/12 10:57:06;;;;;;;;;;;3.90;96.60;;;;;;5035245;28;19920;-86
2021/04/12 10:59:48;;;;;;;;;;;3.60;97.20;;;;;;5017067;28;19909;-86
2021/04/12 11:02:37;;;;;;;;;;;3.30;97.80;;;;;;5017638;28;20327;-85
2021/04/12 11:05:08;;;;;;;;;;;3.10;97.80;;;;;;5008515;28;19952;-86
2021/04/12 11:07:42;;;;;;;;;;;3.00;98.20;;;;;;5019347;28;19909;-86
2021/04/12 11:10:14;;;;;;;;;;;2.80;98.50;;;;;;5019046;28;19914;-86
2021/04/12 11:12:43;;;;;;;;;;;2.60;98.10;;;;;;5020132;28;19920;-85
2021/04/12 11:15:08;;;;;;;;;;;2.60;99.00;;;;;;5020679;28;19913;-86
2021/04/12 11:18:03;;;;;;;;;;;2.70;98.80;;;;;;5037766;28;20337;-86
2021/04/12 11:21:06;;;;;;;;;;;2.90;98.50;;;;;;5001269;28;19909;-86
2021/04/12 11:23:37;;;;;;;;;;;3.20;98.50;;;;;;5018713;28;19981;-85
2021/04/12 11:26:23;;;;;;;;;;;3.40;98.80;;;;;;5018750;28;20332;-86
2021/04/12 11:28:53;;;;;;;;;;;3.50;98.90;;;;;;5017878;28;20378;-84
2021/04/12 11:31:37;;;;;;;;;;;3.70;99.00;;;;;;5035588;28;20424;-86
2021/04/12 11:34:11;;;;;;;;;;;3.80;99.00;;;;;;5021256;28;19913;-86
2021/04/12 11:37:01;;;;;;;;;;;4.00;99.40;;;;;;5021398;28;19913;-86
2021/04/12 11:39:28;;;;;;;;;;;4.10;99.50;;;;;;5020608;28;19909;-86
2021/04/12 11:42:02;;;;;;;;;;;4.30;98.90;;;;;;5021085;28;20266;-86
2021/04/12 11:44:31;;;;;;;;;;;4.30;98.30;;;;;;5021364;28;19955;-86
2021/04/12 11:47:05;;;;;;;;;;;4.40;98.50;;;;;;5020820;28;19956;-85
2021/04/12 11:49:46;;;;;;;;;;;4.40;97.00;;;;;;5037355;28;20008;-86
2021/04/12 11:52:42;;;;;;;;;;;4.50;97.30;;;;;;5038706;28;19948;-86
2021/04/12 11:55:30;;;;;;;;;;;4.50;96.60;;;;;;5026237;28;20452;-87
2021/04/12 11:58:11;;;;;;;;;;;4.60;95.90;;;;;;5020172;28;19909;-86
2021/04/12 12:00:55;;;;;;;;;;;4.60;95.00;;;;;;5036773;28;19915;-86
2021/04/12 12:03:41;;;;;;;;;;;4.70;95.40;;;;;;5037284;28;19910;-85
2021/04/12 12:06:18;;;;;;;;;;;4.80;95.10;;;;;;5022386;28;19909;-86
2021/04/12 12:08:43;;;;;;;;;;;4.90;95.40;;;;;;5019438;28;19909;-87
2021/04/12 12:11:44;;;;;;;;;;;5.00;95.00;;;;;;5018521;28;19920;-86
2021/04/12 12:14:28;;;;;;;;;;;5.00;94.30;;;;;;5019009;28;20593;-87
2021/04/12 12:16:55;;;;;;;;;;;5.10;94.00;;;;;;5018778;28;19913;-86
2021/04/12 12:19:31;;;;;;;;;;;5.10;94.60;;;;;;5018668;28;19924;-86
2021/04/12 12:22:03;;;;;;;;;;;5.20;93.50;;;;;;5019067;28;20286;-87
2021/04/12 12:24:43;;;;;;;;;;;5.20;93.30;;;;;;5019155;28;19916;-86
2021/04/12 12:27:19;;;;;;;;;;;5.30;92.90;;;;;;5034917;28;19992;-86
2021/04/12 12:29:47;;;;;;;;;;;5.30;92.80;;;;;;5018262;28;19910;-86
2021/04/12 12:32:31;;;;;;;;;;;5.40;93.10;;;;;;5036150;28;19952;-86
2021/04/12 12:35:07;;;;;;;;;;;5.50;93.40;;;;;;5018648;28;19953;-86
2021/04/12 12:40:42;;;;;;;;;;;5.70;92.70;;;;;;5035651;28;19916;-86
2021/04/12 12:43:12;;;;;;;;;;;5.80;91.20;;;;;;5018749;28;20307;-86
2021/04/12 12:45:39;;;;;;;;;;;5.80;90.80;;;;;;5018027;28;19981;-86
2021/04/12 12:48:27;;;;;;;;;;;5.80;90.90;;;;;;5036430;28;20000;-87
2021/04/12 12:51:02;;;;;;;;;;;5.80;91.40;;;;;;5035983;28;20385;-86
2021/04/12 12:53:37;;;;;;;;;;;5.80;90.80;;;;;;5017655;28;20536;-86
2021/04/12 12:56:09;;;;;;;;;;;5.80;90.80;;;;;;5018150;28;19913;-86
2021/04/12 12:58:35;;;;;;;;;;;5.80;90.60;;;;;;5018069;28;19916;-86
2021/04/12 13:01:18;;;;;;;;;;;5.90;89.90;;;;;;5017356;28;19909;-86
2021/04/12 13:03:46;;;;;;;;;;;5.90;90.00;;;;;;5034045;28;19909;-86
2021/04/12 13:06:36;;;;;;;;;;;5.90;89.40;;;;;;5017788;28;19910;-87
2021/04/12 13:09:22;;;;;;;;;;;5.90;90.10;;;;;;5024605;28;19924;-85
2021/04/12 13:12:08;;;;;;;;;;;5.90;90.00;;;;;;5034942;28;19919;-87
2021/04/12 13:14:37;;;;;;;;;;;5.90;91.80;;;;;;5017812;28;20379;-86
2021/04/12 13:17:22;;;;;;;;;;;6.00;92.60;;;;;;5035508;28;20012;-87
2021/04/12 13:19:49;;;;;;;;;;;6.00;92.70;;;;;;5020688;28;20374;-86
2021/04/12 13:22:25;;;;;;;;;;;6.00;93.40;;;;;;5017548;28;20377;-85
2021/04/12 13:24:50;;;;;;;;;;;6.10;93.50;;;;;;5034942;28;19936;-86
2021/04/12 13:27:23;;;;;;;;;;;6.20;91.30;;;;;;5035177;28;20359;-86
2021/04/12 13:30:00;;;;;;;;;;;6.30;83.30;;;;;;5034873;28;19950;-87
2021/04/12 13:32:28;;;;;;;;;;;6.30;80.30;;;;;;5035108;28;19959;-86
2021/04/12 13:35:09;;;;;;;;;;;6.40;81.50;;;;;;5035121;28;20263;-87
2021/04/12 13:37:54;;;;;;;;;;;6.50;82.00;;;;;;5035573;28;19952;-86
2021/04/12 13:40:22;;;;;;;;;;;6.50;83.50;;;;;;5016830;28;20012;-85
2021/04/12 13:42:50;;;;;;;;;;;6.60;82.20;;;;;;5017250;28;19931;-86
2021/04/12 13:45:23;;;;;;;;;;;6.60;81.50;;;;;;5019078;28;20370;-85
2021/04/12 13:47:50;;;;;;;;;;;6.50;80.20;;;;;;5016772;28;19916;-85
2021/04/12 13:50:16;;;;;;;;;;;6.60;82.30;;;;;;5035024;28;19909;-85
2021/04/12 13:52:46;;;;;;;;;;;6.60;80.30;;;;;;5017201;28;20267;-84
2021/04/12 13:55:13;;;;;;;;;;;6.60;79.40;;;;;;5016480;28;19909;-86
2021/04/12 13:57:48;;;;;;;;;;;6.60;80.50;;;;;;5016455;28;19909;-85
2021/04/12 14:00:32;;;;;;;;;;;6.60;81.00;;;;;;5017413;28;20281;-85
2021/04/12 14:03:22;;;;;;;;;;;6.60;80.70;;;;;;5017237;28;19932;-85
2021/04/12 14:05:58;;;;;;;;;;;6.70;81.80;;;;;;5017830;28;19909;-84
2021/04/12 14:08:35;;;;;;;;;;;6.60;82.50;;;;;;5016666;28;19909;-84
2021/04/12 14:11:02;;;;;;;;;;;6.60;82.40;;;;;;5016477;28;19913;-85
2021/04/12 14:13:32;;;;;;;;;;;6.70;84.50;;;;;;5016635;28;19921;-85
2021/04/12 14:16:00;;;;;;;;;;;6.80;80.90;;;;;;5016902;28;19913;-85
2021/04/12 14:18:30;;;;;;;;;;;6.80;81.90;;;;;;5016592;28;19909;-84
2021/04/12 14:21:01;;;;;;;;;;;6.80;81.70;;;;;;5017017;28;19909;-85
2021/04/12 14:23:30;;;;;;;;;;;7.00;80.70;;;;;;5017414;28;19909;-85
2021/04/12 14:26:11;;;;;;;;;;;7.00;81.90;;;;;;5016820;28;19941;-85
2021/04/12 14:28:40;;;;;;;;;;;7.10;79.60;;;;;;5016884;28;19944;-85
2021/04/12 14:31:08;;;;;;;;;;;7.10;79.20;;;;;;5016868;28;19909;-85
2021/04/12 14:33:38;;;;;;;;;;;7.10;77.30;;;;;;5016933;28;19975;-85
2021/04/12 14:36:07;;;;;;;;;;;7.00;76.40;;;;;;5016197;28;19913;-85
2021/04/12 14:38:34;;;;;;;;;;;7.00;77.70;;;;;;5016278;28;19916;-86
2021/04/12 14:41:08;;;;;;;;;;;7.00;76.00;;;;;;5016417;28;20381;-85
2021/04/12 14:43:38;;;;;;;;;;;7.00;76.30;;;;;;5016369;28;20357;-85
2021/04/12 14:46:16;;;;;;;;;;;7.10;75.00;;;;;;5016345;28;20457;-85
2021/04/12 14:48:53;;;;;;;;;;;7.20;74.20;;;;;;5016163;28;19909;-86
2021/04/12 14:51:24;;;;;;;;;;;7.30;69.10;;;;;;5016429;28;19916;-86
2021/04/12 14:53:55;;;;;;;;;;;7.60;68.40;;;;;;5016137;28;19920;-85
2021/04/12 14:56:23;;;;;;;;;;;7.80;69.20;;;;;;5016903;28;19913;-85
2021/04/12 14:58:56;;;;;;;;;;;7.70;68.30;;;;;;5018369;28;19996;-85
2021/04/12 15:01:25;;;;;;;;;;;8.00;64.30;;;;;;5017066;28;19910;-85
2021/04/12 15:04:12;;;;;;;;;;;8.30;65.60;;;;;;5018885;28;20329;-86
2021/04/12 15:06:42;;;;;;;;;;;8.60;63.20;;;;;;5018049;28;19948;-85
2021/04/12 15:09:10;;;;;;;;;;;8.50;62.90;;;;;;5016801;28;19913;-86
2021/04/12 15:11:43;;;;;;;;;;;8.50;60.30;;;;;;5015608;28;19909;-86
2021/04/12 15:14:17;;;;;;;;;;;8.40;60.10;;;;;;5016106;28;19986;-86
2021/04/12 15:16:43;;;;;;;;;;;8.40;61.70;;;;;;5016105;28;19913;-85
2021/04/12 15:19:18;;;;;;;;;;;8.60;61.60;;;;;;5015817;28;19909;-85
2021/04/12 15:21:47;;;;;;;;;;;8.50;60.00;;;;;;5015833;28;19936;-86
2021/04/12 15:24:13;;;;;;;;;;;8.70;61.40;;;;;;5016163;28;19909;-86
2021/04/12 15:26:43;;;;;;;;;;;8.80;59.10;;;;;;5015607;28;19916;-86
2021/04/12 15:29:14;;;;;;;;;;;8.70;58.60;;;;;;5015731;28;19915;-85